createdAt,value
2022-07-25T00:00:48.698Z,23.28
2022-07-25T00:01:48.852Z,23.29
2022-07-25T00:02:48.669Z,23.42
2022-07-25T00:03:48.790Z,23.41
2022-07-25T00:04:48.718Z,23.36
2022-07-25T00:05:48.622Z,23.44
2022-07-25T00:06:48.627Z,23.42
2022-07-25T00:07:48.591Z,23.42
2022-07-25T00:08:48.598Z,23.37
2022-07-25T00:09:48.563Z,23.44
2022-07-25T00:10:48.554Z,23.45
2022-07-25T00:11:48.536Z,23.39
2022-07-25T00:12:48.525Z,23.49
2022-07-25T00:13:48.522Z,23.49
2022-07-25T00:14:48.485Z,23.51
2022-07-25T00:15:48.581Z,23.49
2022-07-25T00:16:48.459Z,23.51
2022-07-25T00:17:48.446Z,23.49
2022-07-25T00:18:48.491Z,23.45
2022-07-25T00:19:48.411Z,23.49
2022-07-25T00:20:48.397Z,23.49
2022-07-25T00:21:48.481Z,23.41
2022-07-25T00:22:48.380Z,23.39
2022-07-25T00:23:48.376Z,23.39
2022-07-25T00:24:48.354Z,23.41
2022-07-25T00:25:48.324Z,23.39
2022-07-25T00:26:48.308Z,23.46
2022-07-25T00:27:48.289Z,23.42
2022-07-25T00:28:48.279Z,23.34
2022-07-25T00:29:48.280Z,23.42
2022-07-25T00:30:48.343Z,23.46
2022-07-25T00:31:48.260Z,23.48
2022-07-25T00:32:48.218Z,23.48
2022-07-25T00:33:48.211Z,23.51
2022-07-25T00:34:48.189Z,23.51
2022-07-25T00:35:48.198Z,23.51
2022-07-25T00:36:48.167Z,23.59
2022-07-25T00:37:48.147Z,23.55
2022-07-25T00:38:48.135Z,23.59
2022-07-25T00:39:48.115Z,23.51
2022-07-25T00:40:54.703Z,23.55
2022-07-25T00:41:48.105Z,23.52
2022-07-25T00:42:48.067Z,23.60
2022-07-25T00:43:48.058Z,23.52
2022-07-25T00:44:48.042Z,23.54
2022-07-25T00:45:48.039Z,23.63
2022-07-25T00:46:48.029Z,23.51
2022-07-25T00:47:48.014Z,23.48
2022-07-25T00:48:48.089Z,23.44
2022-07-25T00:49:47.970Z,23.37
2022-07-25T00:50:47.955Z,23.39
2022-07-25T00:51:47.945Z,23.37
2022-07-25T00:52:47.945Z,23.34
2022-07-25T00:53:47.914Z,23.28
2022-07-25T00:54:47.907Z,23.31
2022-07-25T00:55:47.883Z,23.26
2022-07-25T00:56:47.885Z,23.36
2022-07-25T00:57:47.850Z,23.31
2022-07-25T00:58:47.848Z,23.29
2022-07-25T00:59:47.817Z,23.33
2022-07-25T01:00:47.806Z,23.25
2022-07-25T01:01:48.198Z,23.28
2022-07-25T01:02:47.844Z,23.25
2022-07-25T01:03:47.755Z,23.18
2022-07-25T01:04:47.745Z,23.13
2022-07-25T01:05:53.107Z,23.14
2022-07-25T01:06:47.716Z,23.18
2022-07-25T01:07:47.700Z,23.04
2022-07-25T01:08:47.704Z,23.04
2022-07-25T01:09:47.688Z,22.96
2022-07-25T01:10:47.657Z,22.98
2022-07-25T01:11:47.642Z,22.89
2022-07-25T01:12:47.623Z,22.86
2022-07-25T01:13:47.607Z,22.81
2022-07-25T01:14:47.618Z,22.80
2022-07-25T01:15:47.631Z,22.80
2022-07-25T01:16:47.566Z,22.85
2022-07-25T01:17:47.555Z,22.73
2022-07-25T01:18:47.563Z,22.77
2022-07-25T01:19:47.538Z,22.67
2022-07-25T01:20:47.520Z,22.70
2022-07-25T01:21:47.487Z,22.67
2022-07-25T01:22:47.530Z,22.68
2022-07-25T01:23:47.470Z,22.73
2022-07-25T01:24:47.445Z,22.61
2022-07-25T01:25:47.432Z,22.61
2022-07-25T01:26:47.416Z,22.59
2022-07-25T01:27:52.794Z,22.66
2022-07-25T01:28:47.404Z,22.71
2022-07-25T01:29:47.371Z,22.66
2022-07-25T01:30:47.429Z,22.67
2022-07-25T01:31:47.357Z,22.73
2022-07-25T01:32:47.347Z,22.73
2022-07-25T01:33:47.311Z,22.78
2022-07-25T01:34:47.314Z,22.85
2022-07-25T01:35:47.292Z,22.86
2022-07-25T01:36:47.277Z,22.78
2022-07-25T01:37:47.266Z,22.85
2022-07-25T01:38:47.233Z,22.73
2022-07-25T01:39:47.226Z,22.64
2022-07-25T01:40:47.203Z,22.51
2022-07-25T01:41:47.208Z,22.56
2022-07-25T01:42:47.187Z,22.64
2022-07-25T01:43:47.157Z,22.70
2022-07-25T01:44:47.138Z,22.64
2022-07-25T01:45:47.193Z,22.67
2022-07-25T01:46:47.177Z,22.64
2022-07-25T01:47:47.097Z,22.67
2022-07-25T01:48:47.167Z,22.62
2022-07-25T01:49:47.071Z,22.55
2022-07-25T01:50:47.052Z,22.52
2022-07-25T01:51:47.070Z,22.55
2022-07-25T01:52:47.023Z,22.56
2022-07-25T01:53:47.020Z,22.55
2022-07-25T01:54:46.992Z,22.49
2022-07-25T01:55:46.975Z,22.55
2022-07-25T01:56:48.243Z,22.49
2022-07-25T01:57:50.046Z,22.53
2022-07-25T01:58:46.931Z,22.52
2022-07-25T01:59:46.917Z,22.53
2022-07-25T02:00:46.924Z,22.55
2022-07-25T02:01:46.932Z,22.51
2022-07-25T02:02:46.863Z,22.48
2022-07-25T02:03:48.936Z,22.53
2022-07-25T02:04:46.966Z,22.56
2022-07-25T02:05:46.864Z,22.52
2022-07-25T02:06:46.806Z,22.51
2022-07-25T02:07:46.797Z,22.52
2022-07-25T02:08:46.782Z,22.56
2022-07-25T02:09:46.775Z,22.46
2022-07-25T02:10:46.769Z,22.49
2022-07-25T02:11:46.730Z,22.61
2022-07-25T02:12:46.721Z,22.55
2022-07-25T02:13:46.704Z,22.43
2022-07-25T02:14:46.694Z,22.34
2022-07-25T02:15:46.686Z,22.46
2022-07-25T02:16:46.702Z,22.37
2022-07-25T02:17:46.639Z,22.38
2022-07-25T02:18:46.632Z,22.36
2022-07-25T02:19:46.608Z,22.31
2022-07-25T02:20:46.611Z,22.36
2022-07-25T02:21:46.575Z,22.31
2022-07-25T02:22:46.563Z,22.31
2022-07-25T02:23:46.564Z,22.34
2022-07-25T02:24:46.534Z,22.43
2022-07-25T02:25:46.512Z,22.41
2022-07-25T02:26:46.501Z,22.31
2022-07-25T02:27:46.498Z,22.34
2022-07-25T02:28:46.471Z,22.41
2022-07-25T02:29:46.456Z,22.43
2022-07-25T02:30:46.527Z,22.43
2022-07-25T02:31:46.452Z,22.31
2022-07-25T02:32:46.409Z,22.28
2022-07-25T02:33:46.397Z,22.31
2022-07-25T02:34:46.377Z,22.37
2022-07-25T02:35:46.362Z,22.28
2022-07-25T02:36:46.348Z,22.33
2022-07-25T02:37:46.349Z,22.28
2022-07-25T02:38:46.320Z,22.37
2022-07-25T02:39:46.299Z,22.40
2022-07-25T02:40:46.285Z,22.40
2022-07-25T02:41:46.281Z,22.40
2022-07-25T02:42:46.274Z,22.52
2022-07-25T02:43:46.241Z,22.33
2022-07-25T02:44:46.247Z,22.43
2022-07-25T02:45:46.268Z,22.52
2022-07-25T02:46:46.197Z,22.46
2022-07-25T02:47:46.185Z,22.34
2022-07-25T02:48:46.205Z,22.43
2022-07-25T02:49:46.161Z,22.43
2022-07-25T02:50:46.128Z,22.37
2022-07-25T02:51:46.115Z,22.43
2022-07-25T02:52:46.097Z,22.34
2022-07-25T02:53:57.108Z,22.43
2022-07-25T02:54:46.084Z,22.37
2022-07-25T02:55:46.089Z,22.37
2022-07-25T02:56:46.037Z,22.41
2022-07-25T02:57:46.023Z,22.30
2022-07-25T02:58:46.008Z,22.36
2022-07-25T02:59:46.009Z,22.30
2022-07-25T03:00:45.979Z,22.22
2022-07-25T03:01:46.036Z,22.21
2022-07-25T03:02:45.947Z,22.11
2022-07-25T03:03:46.030Z,22.09
2022-07-25T03:04:45.914Z,22.00
2022-07-25T03:05:45.927Z,21.90
2022-07-25T03:06:45.886Z,21.91
2022-07-25T03:07:45.871Z,21.88
2022-07-25T03:08:45.869Z,21.84
2022-07-25T03:09:45.837Z,21.90
2022-07-25T03:10:45.824Z,21.80
2022-07-25T03:11:45.827Z,21.80
2022-07-25T03:12:45.793Z,21.81
2022-07-25T03:13:45.774Z,21.77
2022-07-25T03:14:45.763Z,21.84
2022-07-25T03:15:45.755Z,21.84
2022-07-25T03:16:45.779Z,21.78
2022-07-25T03:17:45.717Z,21.93
2022-07-25T03:18:45.701Z,21.88
2022-07-25T03:19:45.683Z,22.00
2022-07-25T03:20:45.668Z,21.96
2022-07-25T03:21:45.651Z,21.98
2022-07-25T03:22:45.652Z,21.97
2022-07-25T03:23:50.457Z,22.00
2022-07-25T03:24:45.605Z,22.03
2022-07-25T03:25:45.602Z,22.07
2022-07-25T03:26:45.578Z,22.06
2022-07-25T03:27:45.577Z,22.11
2022-07-25T03:28:45.545Z,22.07
2022-07-25T03:29:45.528Z,22.09
2022-07-25T03:30:45.519Z,22.07
2022-07-25T03:31:45.528Z,22.01
2022-07-25T03:32:45.498Z,22.12
2022-07-25T03:33:45.486Z,22.06
2022-07-25T03:34:45.466Z,22.01
2022-07-25T03:35:45.431Z,22.07
2022-07-25T03:36:45.414Z,22.09
2022-07-25T03:37:45.408Z,22.15
2022-07-25T03:38:45.386Z,22.06
2022-07-25T03:39:45.388Z,22.09
2022-07-25T03:40:45.351Z,22.13
2022-07-25T03:41:45.334Z,22.09
2022-07-25T03:42:45.319Z,22.15
2022-07-25T03:43:45.322Z,22.19
2022-07-25T03:44:45.291Z,22.23
2022-07-25T03:45:45.342Z,22.22
2022-07-25T03:46:45.256Z,22.23
2022-07-25T03:47:45.247Z,22.21
2022-07-25T03:48:45.332Z,22.19
2022-07-25T03:49:45.242Z,22.13
2022-07-25T03:50:45.212Z,22.21
2022-07-25T03:51:45.180Z,22.15
2022-07-25T03:52:45.161Z,22.07
2022-07-25T03:53:45.148Z,22.09
2022-07-25T03:54:45.137Z,22.09
2022-07-25T03:55:45.133Z,22.07
2022-07-25T03:56:45.106Z,22.03
2022-07-25T03:57:45.093Z,22.03
2022-07-25T03:58:45.070Z,22.18
2022-07-25T03:59:45.053Z,22.12
2022-07-25T04:00:45.106Z,22.13
2022-07-25T04:01:45.025Z,22.09
2022-07-25T04:02:45.097Z,22.13
2022-07-25T04:03:45.025Z,22.18
2022-07-25T04:04:44.984Z,22.27
2022-07-25T04:05:47.553Z,22.21
2022-07-25T04:06:44.967Z,22.15
2022-07-25T04:07:44.931Z,22.22
2022-07-25T04:08:44.928Z,22.34
2022-07-25T04:09:44.906Z,22.33
2022-07-25T04:10:44.886Z,22.34
2022-07-25T04:11:44.883Z,22.37
2022-07-25T04:12:44.869Z,22.30
2022-07-25T04:13:44.843Z,22.33
2022-07-25T04:14:44.828Z,22.36
2022-07-25T04:15:44.809Z,22.27
2022-07-25T04:16:44.825Z,22.34
2022-07-25T04:17:44.793Z,22.34
2022-07-25T04:18:44.755Z,22.37
2022-07-25T04:19:44.741Z,22.43
2022-07-25T04:20:44.723Z,22.43
2022-07-25T04:21:44.713Z,22.44
2022-07-25T04:22:46.891Z,22.34
2022-07-25T04:23:44.680Z,22.43
2022-07-25T04:24:44.663Z,22.41
2022-07-25T04:25:44.648Z,22.48
2022-07-25T04:26:44.630Z,22.56
2022-07-25T04:27:44.621Z,22.73
2022-07-25T04:28:44.659Z,22.71
2022-07-25T04:29:44.586Z,22.74
2022-07-25T04:30:44.570Z,22.71
2022-07-25T04:31:44.625Z,22.74
2022-07-25T04:32:44.541Z,22.83
2022-07-25T04:33:51.087Z,22.81
2022-07-25T04:34:44.534Z,22.80
2022-07-25T04:35:44.487Z,22.83
2022-07-25T04:36:44.494Z,22.71
2022-07-25T04:37:44.459Z,22.83
2022-07-25T04:38:44.456Z,22.89
2022-07-25T04:39:44.448Z,22.74
2022-07-25T04:40:44.413Z,22.81
2022-07-25T04:41:44.411Z,22.78
2022-07-25T04:42:46.493Z,22.76
2022-07-25T04:43:48.462Z,22.92
2022-07-25T04:44:44.356Z,22.89
2022-07-25T04:45:44.385Z,22.91
2022-07-25T04:46:44.327Z,22.93
2022-07-25T04:47:44.305Z,22.93
2022-07-25T04:48:46.420Z,22.98
2022-07-25T04:49:44.295Z,22.99
2022-07-25T04:50:44.285Z,22.99
2022-07-25T04:51:44.245Z,22.99
2022-07-25T04:52:44.237Z,23.01
2022-07-25T04:53:44.220Z,22.98
2022-07-25T04:54:44.207Z,22.98
2022-07-25T04:55:44.185Z,23.01
2022-07-25T04:56:45.572Z,23.10
2022-07-25T04:57:44.154Z,23.17
2022-07-25T04:58:44.151Z,23.14
2022-07-25T04:59:44.129Z,23.17
2022-07-25T05:00:44.148Z,23.13
2022-07-25T05:01:44.157Z,23.15
2022-07-25T05:02:44.114Z,23.14
2022-07-25T05:03:49.806Z,23.18
2022-07-25T05:04:45.537Z,23.18
2022-07-25T05:05:44.058Z,23.23
2022-07-25T05:06:44.022Z,23.25
2022-07-25T05:07:44.030Z,23.28
2022-07-25T05:08:43.994Z,23.25
2022-07-25T05:09:44.001Z,23.26
2022-07-25T05:10:43.965Z,23.25
2022-07-25T05:11:47.415Z,23.22
2022-07-25T05:12:43.935Z,23.28
2022-07-25T05:13:43.915Z,23.25
2022-07-25T05:14:43.899Z,23.28
2022-07-25T05:15:43.889Z,23.31
2022-07-25T05:16:43.982Z,23.28
2022-07-25T05:17:43.878Z,23.26
2022-07-25T05:18:43.859Z,23.31
2022-07-25T05:19:43.824Z,23.37
2022-07-25T05:20:43.809Z,23.29
2022-07-25T05:21:43.820Z,23.42
2022-07-25T05:22:43.805Z,23.39
2022-07-25T05:23:43.785Z,23.41
2022-07-25T05:24:43.749Z,23.39
2022-07-25T05:25:43.736Z,23.37
2022-07-25T05:26:43.720Z,23.36
2022-07-25T05:27:43.710Z,23.34
2022-07-25T05:28:43.705Z,23.46
2022-07-25T05:29:43.673Z,23.46
2022-07-25T05:30:43.671Z,23.44
2022-07-25T05:31:43.702Z,23.42
2022-07-25T05:32:43.628Z,23.39
2022-07-25T05:33:43.638Z,23.36
2022-07-25T05:34:43.622Z,23.42
2022-07-25T05:35:43.588Z,23.37
2022-07-25T05:36:47.146Z,23.45
2022-07-25T05:37:43.550Z,23.49
2022-07-25T05:38:43.561Z,23.51
2022-07-25T05:39:43.523Z,23.49
2022-07-25T05:40:43.518Z,23.42
2022-07-25T05:41:43.494Z,23.48
2022-07-25T05:42:43.511Z,23.52
2022-07-25T05:43:43.533Z,23.54
2022-07-25T05:44:43.524Z,23.55
2022-07-25T05:45:43.503Z,23.59
2022-07-25T05:46:43.556Z,23.66
2022-07-25T05:47:43.409Z,23.60
2022-07-25T05:48:43.453Z,23.66
2022-07-25T05:49:43.374Z,23.66
2022-07-25T05:50:43.367Z,23.73
2022-07-25T05:51:43.367Z,23.74
2022-07-25T05:52:43.333Z,23.73
2022-07-25T05:53:43.343Z,23.76
2022-07-25T05:54:43.301Z,23.76
2022-07-25T05:55:43.288Z,23.91
2022-07-25T06:09:50.153Z,24.18
2022-07-25T06:10:50.120Z,24.22
2022-07-25T06:11:58.132Z,24.16
2022-07-25T06:12:50.106Z,24.16
2022-07-25T06:13:50.073Z,24.28
2022-07-25T06:14:50.116Z,24.19
2022-07-25T06:15:50.114Z,24.22
2022-07-25T06:16:50.070Z,24.37
2022-07-25T06:17:50.073Z,24.33
2022-07-25T06:18:50.011Z,24.40
2022-07-25T06:19:49.984Z,24.44
2022-07-25T06:20:49.974Z,24.51
2022-07-25T06:21:49.958Z,24.51
2022-07-25T06:22:49.937Z,24.58
2022-07-25T06:23:49.951Z,24.63
2022-07-25T06:24:49.906Z,24.70
2022-07-25T06:25:50.276Z,24.66
2022-07-25T06:26:49.878Z,24.68
2022-07-25T06:27:49.867Z,24.66
2022-07-25T06:28:49.871Z,24.84
2022-07-25T06:29:49.841Z,24.84
2022-07-25T06:30:49.841Z,24.94
2022-07-25T06:31:49.869Z,24.91
2022-07-25T06:32:49.798Z,24.86
2022-07-25T06:33:49.780Z,24.90
2022-07-25T06:34:49.777Z,25.03
2022-07-25T06:35:49.753Z,24.97
2022-07-25T06:36:49.740Z,25.04
2022-07-25T06:37:49.724Z,25.00
2022-07-25T06:38:49.704Z,25.01
2022-07-25T06:39:49.711Z,25.00
2022-07-25T06:40:49.679Z,24.99
2022-07-25T06:41:49.665Z,24.96
2022-07-25T06:42:49.652Z,24.96
2022-07-25T06:43:49.639Z,24.86
2022-07-25T06:44:49.641Z,25.04
2022-07-25T06:45:49.634Z,24.97
2022-07-25T06:46:50.180Z,25.11
2022-07-25T06:47:49.579Z,25.14
2022-07-25T06:48:49.640Z,25.16
2022-07-25T06:49:49.552Z,25.22
2022-07-25T06:50:49.551Z,25.19
2022-07-25T06:51:49.540Z,25.14
2022-07-25T06:52:49.511Z,25.30
2022-07-25T06:53:49.493Z,25.21
2022-07-25T06:54:49.508Z,25.30
2022-07-25T06:55:49.486Z,25.36
2022-07-25T06:56:49.461Z,25.36
2022-07-25T06:57:49.439Z,25.34
2022-07-25T06:58:49.426Z,25.22
2022-07-25T06:59:49.412Z,25.33
2022-07-25T07:00:49.468Z,25.37
2022-07-25T07:01:51.671Z,25.40
2022-07-25T07:02:49.390Z,25.45
2022-07-25T07:03:49.413Z,25.41
2022-07-25T07:04:49.347Z,25.49
2022-07-25T07:05:49.329Z,25.43
2022-07-25T07:06:49.321Z,25.36
2022-07-25T07:07:49.317Z,25.41
2022-07-25T07:08:49.293Z,25.52
2022-07-25T07:11:31.554Z,25.56
2022-07-25T07:12:31.564Z,25.67
2022-07-25T07:13:31.610Z,25.63
2022-07-25T07:14:31.512Z,25.67
2022-07-25T07:15:31.477Z,25.70
2022-07-25T07:16:31.567Z,25.77
2022-07-25T07:17:31.490Z,25.83
2022-07-25T07:18:31.440Z,25.96
2022-07-25T07:19:31.426Z,26.07
2022-07-25T07:20:31.437Z,26.07
2022-07-25T07:21:31.399Z,26.15
2022-07-25T07:22:31.385Z,26.20
2022-07-25T07:23:31.384Z,26.15
2022-07-25T07:24:31.363Z,26.21
2022-07-25T07:25:31.369Z,26.15
2022-07-25T07:26:31.336Z,26.27
2022-07-25T07:27:31.320Z,26.34
2022-07-25T07:28:31.309Z,26.38
2022-07-25T07:29:31.298Z,26.51
2022-07-25T07:30:58.307Z,26.53
2022-07-25T07:31:31.374Z,26.71
2022-07-25T07:32:31.270Z,26.67
2022-07-25T07:33:31.241Z,26.78
2022-07-25T07:34:31.239Z,26.93
2022-07-25T07:35:31.241Z,26.90
2022-07-25T07:36:31.207Z,26.95
2022-07-25T07:37:35.861Z,27.03
2022-07-25T07:38:31.179Z,27.08
2022-07-25T07:39:31.164Z,27.13
2022-07-25T07:40:31.175Z,27.13
2022-07-25T07:41:31.134Z,27.07
2022-07-25T07:42:31.141Z,27.07
2022-07-25T07:43:31.109Z,27.04
2022-07-25T07:44:31.098Z,26.95
2022-07-25T07:45:31.082Z,26.95
2022-07-25T07:46:31.184Z,26.97
2022-07-25T07:47:31.060Z,26.95
2022-07-25T07:48:31.279Z,26.97
2022-07-25T07:49:31.034Z,26.95
2022-07-25T07:50:31.021Z,27.00
2022-07-25T07:51:31.007Z,27.01
2022-07-25T07:52:30.998Z,27.08
2022-07-25T07:53:31.010Z,27.16
2022-07-25T07:54:30.970Z,27.12
2022-07-25T07:55:30.952Z,27.17
2022-07-25T07:56:30.941Z,27.16
2022-07-25T07:57:30.927Z,27.19
2022-07-25T07:58:30.914Z,27.20
2022-07-25T07:59:30.954Z,27.22
2022-07-25T08:00:30.894Z,27.23
2022-07-25T08:01:30.924Z,27.22
2022-07-25T08:02:30.931Z,27.22
2022-07-25T08:03:30.851Z,27.22
2022-07-25T08:04:30.837Z,27.25
2022-07-25T08:05:30.846Z,27.20
2022-07-25T08:06:30.821Z,27.26
2022-07-25T08:07:30.798Z,27.25
2022-07-25T08:08:31.679Z,27.22
2022-07-25T08:09:30.781Z,27.16
2022-07-25T08:10:30.761Z,27.19
2022-07-25T08:11:30.766Z,27.16
2022-07-25T08:12:30.743Z,27.13
2022-07-25T08:13:30.834Z,27.04
2022-07-25T08:14:30.709Z,27.04
2022-07-25T08:15:30.697Z,27.15
2022-07-25T08:16:30.794Z,27.03
2022-07-25T08:17:30.671Z,27.04
2022-07-25T08:18:30.673Z,27.05
2022-07-25T08:19:30.648Z,27.07
2022-07-25T08:20:38.710Z,26.98
2022-07-25T08:21:30.638Z,26.90
2022-07-25T08:22:30.611Z,26.80
2022-07-25T08:23:30.596Z,26.76
2022-07-25T08:24:30.577Z,26.83
2022-07-25T08:25:30.572Z,26.71
2022-07-25T08:26:30.578Z,26.70
2022-07-25T08:27:30.547Z,26.70
2022-07-25T08:28:30.538Z,26.68
2022-07-25T08:29:30.519Z,26.82
2022-07-25T08:30:30.506Z,26.64
2022-07-25T08:31:30.557Z,26.65
2022-07-25T08:32:30.495Z,26.61
2022-07-25T08:33:30.497Z,26.65
2022-07-25T08:34:30.451Z,26.58
2022-07-25T08:35:30.454Z,26.58
2022-07-25T08:36:34.596Z,26.51
2022-07-25T08:37:30.417Z,26.43
2022-07-25T08:38:30.420Z,26.42
2022-07-25T08:39:30.399Z,26.41
2022-07-25T08:40:30.378Z,26.36
2022-07-25T08:41:30.366Z,26.39
2022-07-25T08:42:30.352Z,26.38
2022-07-25T08:43:30.349Z,26.26
2022-07-25T08:44:30.323Z,26.28
2022-07-25T08:45:30.309Z,26.30
2022-07-25T08:46:30.430Z,26.23
2022-07-25T08:47:30.281Z,26.11
2022-07-25T08:48:30.400Z,26.12
2022-07-25T08:49:30.257Z,26.07
2022-07-25T08:50:30.251Z,26.11
2022-07-25T08:51:30.249Z,26.15
2022-07-25T08:52:30.234Z,26.39
2022-07-25T08:53:33.251Z,26.51
2022-07-25T08:54:30.216Z,26.64
2022-07-25T08:55:30.197Z,26.67
2022-07-25T08:56:30.165Z,26.90
2022-07-25T08:57:30.154Z,27.01
2022-07-25T08:58:30.149Z,27.01
2022-07-25T08:59:30.153Z,26.97
2022-07-25T09:00:30.133Z,26.93
2022-07-25T09:01:34.574Z,26.90
2022-07-25T09:02:30.218Z,26.94
2022-07-25T09:03:30.074Z,27.00
2022-07-25T09:04:30.067Z,27.13
2022-07-25T09:05:30.077Z,27.25
2022-07-25T09:06:30.049Z,27.38
2022-07-25T09:07:30.023Z,27.35
2022-07-25T09:08:30.015Z,27.47
2022-07-25T09:09:30.002Z,27.44
2022-07-25T09:10:30.011Z,27.41
2022-07-25T09:11:30.034Z,27.41
2022-07-25T09:12:29.962Z,27.64
2022-07-25T09:13:29.950Z,27.58
2022-07-25T09:14:29.938Z,27.64
2022-07-25T09:15:29.971Z,27.85
2022-07-25T09:16:29.947Z,27.98
2022-07-25T09:17:29.929Z,27.87
2022-07-25T09:18:29.888Z,27.85
2022-07-25T09:19:29.877Z,27.87
2022-07-25T09:20:29.858Z,27.85
2022-07-25T09:21:29.871Z,27.83
2022-07-25T09:22:29.866Z,28.00
2022-07-25T09:23:29.828Z,28.10
2022-07-25T09:24:29.806Z,28.31
2022-07-25T09:25:29.803Z,28.34
2022-07-25T09:26:29.783Z,28.28
2022-07-25T09:27:29.795Z,28.24
2022-07-25T09:28:29.778Z,28.07
2022-07-25T09:29:29.752Z,28.06
2022-07-25T09:30:29.740Z,28.09
2022-07-25T09:31:29.799Z,27.94
2022-07-25T09:32:29.731Z,28.00
2022-07-25T09:33:29.703Z,27.83
2022-07-25T09:34:29.692Z,27.76
2022-07-25T09:35:29.679Z,27.68
2022-07-25T09:36:29.679Z,27.61
2022-07-25T09:37:29.678Z,27.68
2022-07-25T09:38:29.643Z,27.68
2022-07-25T09:39:29.634Z,27.60
2022-07-25T09:40:32.138Z,27.63
2022-07-25T09:41:29.628Z,27.63
2022-07-25T09:42:29.594Z,27.83
2022-07-25T09:43:29.585Z,27.75
2022-07-25T09:44:29.606Z,27.57
2022-07-25T09:45:31.579Z,27.50
2022-07-25T09:46:29.589Z,27.35
2022-07-25T09:47:29.537Z,27.42
2022-07-25T09:48:29.559Z,27.37
2022-07-25T09:49:29.513Z,27.22
2022-07-25T09:50:29.527Z,27.16
2022-07-25T09:51:29.489Z,27.10
2022-07-25T09:52:29.482Z,27.08
2022-07-25T09:53:29.471Z,26.94
2022-07-25T09:54:29.451Z,26.85
2022-07-25T09:55:29.457Z,26.93
2022-07-25T09:56:29.434Z,26.79
2022-07-25T09:57:29.414Z,26.64
2022-07-25T09:58:29.402Z,26.67
2022-07-25T09:59:29.390Z,26.60
2022-07-25T10:00:29.443Z,26.61
2022-07-25T10:01:29.407Z,26.63
2022-07-25T10:02:29.397Z,26.63
2022-07-25T10:03:29.339Z,26.65
2022-07-25T10:04:29.337Z,26.53
2022-07-25T10:05:29.316Z,26.52
2022-07-25T10:06:29.322Z,26.67
2022-07-25T10:07:31.555Z,26.65
2022-07-25T10:08:29.279Z,26.78
2022-07-25T10:09:29.269Z,26.71
2022-07-25T10:10:29.268Z,26.85
2022-07-25T10:11:29.240Z,26.79
2022-07-25T10:12:29.227Z,26.68
2022-07-25T10:13:29.219Z,26.70
2022-07-25T10:14:29.219Z,26.78
2022-07-25T10:15:29.198Z,26.82
2022-07-25T10:16:29.211Z,26.94
2022-07-25T10:17:29.176Z,26.94
2022-07-25T10:18:29.170Z,27.03
2022-07-25T10:19:29.143Z,27.08
2022-07-25T10:20:29.145Z,27.00
2022-07-25T10:21:29.235Z,27.07
2022-07-25T10:22:53.759Z,26.98
2022-07-25T10:23:29.103Z,26.65
2022-07-25T10:24:29.098Z,26.58
2022-07-25T10:25:29.078Z,26.61
2022-07-25T10:26:29.064Z,26.70
2022-07-25T10:27:29.042Z,27.10
2022-07-25T10:28:29.044Z,27.41
2022-07-25T10:29:29.028Z,27.79
2022-07-25T10:30:29.070Z,28.17
2022-07-25T10:31:29.040Z,28.57
2022-07-25T10:32:28.979Z,28.81
2022-07-25T10:33:28.974Z,29.03
2022-07-25T10:34:28.972Z,29.49
2022-07-25T10:35:28.947Z,29.71
2022-07-25T10:36:28.941Z,29.68
2022-07-25T10:37:28.935Z,29.37
2022-07-25T10:38:28.926Z,29.19
2022-07-25T10:39:28.927Z,28.94
2022-07-25T10:40:28.909Z,28.66
2022-07-25T10:41:28.891Z,28.57
2022-07-25T10:42:28.877Z,28.62
2022-07-25T10:43:28.859Z,29.09
2022-07-25T10:44:28.856Z,29.54
2022-07-25T10:45:28.861Z,29.83
2022-07-25T10:46:28.884Z,29.95
2022-07-25T10:47:28.821Z,30.05
2022-07-25T10:48:28.940Z,29.91
2022-07-25T10:49:32.318Z,29.87
2022-07-25T10:50:53.543Z,29.74
2022-07-25T10:51:28.811Z,29.61
2022-07-25T10:52:28.772Z,29.36
2022-07-25T10:53:28.762Z,29.15
2022-07-25T10:54:28.757Z,29.18
2022-07-25T10:55:28.749Z,29.31
2022-07-25T10:56:28.743Z,29.39
2022-07-25T10:57:31.897Z,29.43
2022-07-25T10:58:28.721Z,29.52
2022-07-25T10:59:28.725Z,29.39
2022-07-25T11:00:28.698Z,29.06
2022-07-25T11:01:28.794Z,28.77
2022-07-25T11:02:28.706Z,28.66
2022-07-25T11:03:28.664Z,28.40
2022-07-25T11:04:28.664Z,28.54
2022-07-25T11:05:28.672Z,28.40
2022-07-25T11:06:28.675Z,28.47
2022-07-25T11:07:28.653Z,28.31
2022-07-25T11:08:28.625Z,28.00
2022-07-25T11:09:28.717Z,27.82
2022-07-25T11:10:28.597Z,27.78
2022-07-25T11:11:28.586Z,27.69
2022-07-25T11:12:28.578Z,27.57
2022-07-25T11:13:28.583Z,27.68
2022-07-25T11:14:28.554Z,27.82
2022-07-25T11:15:28.545Z,27.80
2022-07-25T11:16:28.558Z,27.87
2022-07-25T11:17:28.528Z,27.90
2022-07-25T11:18:28.533Z,28.01
2022-07-25T11:19:28.500Z,27.85
2022-07-25T11:20:28.514Z,27.83
2022-07-25T11:21:28.487Z,27.87
2022-07-25T11:22:28.463Z,27.93
2022-07-25T11:23:28.476Z,28.03
2022-07-25T11:24:28.463Z,28.07
2022-07-25T11:25:28.437Z,28.16
2022-07-25T11:26:28.416Z,28.37
2022-07-25T11:27:28.429Z,28.32
2022-07-25T11:28:28.415Z,28.62
2022-07-25T11:29:28.387Z,29.10
2022-07-25T11:30:28.377Z,29.34
2022-07-25T11:31:28.443Z,29.43
2022-07-25T11:32:28.412Z,29.40
2022-07-25T11:33:28.342Z,29.39
2022-07-25T11:34:28.359Z,29.36
2022-07-25T11:35:28.342Z,29.29
2022-07-25T11:36:28.308Z,29.34
2022-07-25T11:37:28.300Z,29.37
2022-07-25T11:38:28.288Z,29.46
2022-07-25T11:39:28.298Z,29.40
2022-07-25T11:40:28.270Z,29.43
2022-07-25T11:41:28.258Z,29.46
2022-07-25T11:42:28.247Z,29.40
2022-07-25T11:43:28.236Z,29.58
2022-07-25T11:44:28.255Z,29.91
2022-07-25T11:45:28.247Z,30.20
2022-07-25T11:46:28.238Z,30.58
2022-07-25T11:47:28.234Z,30.51
2022-07-25T11:48:28.237Z,30.71
2022-07-25T11:49:28.175Z,30.70
2022-07-25T11:50:28.196Z,30.52
2022-07-25T11:51:28.156Z,30.53
2022-07-25T11:52:28.144Z,30.45
2022-07-25T11:53:28.134Z,30.22
2022-07-25T11:54:28.127Z,30.43
2022-07-25T11:55:28.117Z,30.14
2022-07-25T11:56:43.918Z,29.54
2022-07-25T11:57:28.096Z,29.15
2022-07-25T11:58:28.094Z,28.87
2022-07-25T11:59:28.072Z,28.87
2022-07-25T12:00:28.096Z,28.72
2022-07-25T12:01:28.056Z,28.81
2022-07-25T12:02:28.233Z,28.84
2022-07-25T12:03:28.106Z,28.80
2022-07-25T12:04:28.025Z,28.89
2022-07-25T12:05:28.017Z,28.86
2022-07-25T12:06:28.032Z,28.93
2022-07-25T12:07:28.002Z,28.94
2022-07-25T12:08:27.982Z,29.02
2022-07-25T12:09:27.975Z,29.07
2022-07-25T12:10:27.967Z,29.09
2022-07-25T12:11:27.985Z,29.18
2022-07-25T12:12:27.958Z,29.04
2022-07-25T12:13:27.934Z,28.91
2022-07-25T12:14:32.313Z,28.93
2022-07-25T12:15:27.910Z,29.02
2022-07-25T12:16:27.953Z,28.98
2022-07-25T12:17:27.912Z,28.89
2022-07-25T12:18:27.879Z,28.96
2022-07-25T12:19:27.869Z,29.10
2022-07-25T12:20:27.858Z,29.00
2022-07-25T12:21:27.857Z,28.93
2022-07-25T12:22:27.842Z,28.81
2022-07-25T12:23:27.837Z,28.83
2022-07-25T12:24:27.826Z,28.94
2022-07-25T12:25:31.003Z,28.98
2022-07-25T12:26:27.792Z,28.81
2022-07-25T12:27:27.776Z,28.80
2022-07-25T12:28:27.788Z,28.62
2022-07-25T12:29:27.756Z,28.31
2022-07-25T12:30:27.846Z,28.24
2022-07-25T12:31:27.787Z,28.16
2022-07-25T12:32:27.725Z,28.24
2022-07-25T12:33:27.719Z,28.28
2022-07-25T12:34:27.723Z,28.16
2022-07-25T12:35:27.696Z,28.19
2022-07-25T12:36:27.681Z,28.16
2022-07-25T12:37:27.674Z,28.10
2022-07-25T12:38:27.658Z,28.30
2022-07-25T12:39:27.667Z,28.66
2022-07-25T12:40:27.636Z,28.71
2022-07-25T12:43:09.677Z,29.04
2022-07-25T12:44:09.672Z,29.13
2022-07-25T12:45:09.674Z,29.09
2022-07-25T12:46:09.726Z,29.12
2022-07-25T12:47:09.631Z,29.09
2022-07-25T12:48:09.622Z,29.22
2022-07-25T12:49:10.102Z,29.33
2022-07-25T12:50:09.613Z,29.58
2022-07-25T12:51:09.629Z,29.81
2022-07-25T12:52:09.573Z,29.78
2022-07-25T12:53:09.566Z,29.66
2022-07-25T12:54:10.066Z,29.62
2022-07-25T12:55:09.546Z,29.66
2022-07-25T12:56:09.561Z,29.87
2022-07-25T12:57:09.522Z,29.91
2022-07-25T12:58:09.515Z,29.93
2022-07-25T12:59:09.849Z,29.98
2022-07-25T13:00:09.489Z,30.08
2022-07-25T13:01:09.565Z,30.24
2022-07-25T13:02:09.566Z,30.00
2022-07-25T13:03:09.475Z,30.22
2022-07-25T13:04:09.456Z,30.07
2022-07-25T13:05:09.441Z,29.99
2022-07-25T13:06:09.426Z,29.86
2022-07-25T13:07:09.413Z,29.91
2022-07-25T13:08:09.430Z,30.05
2022-07-25T13:09:09.944Z,30.18